createdAt,value
2018-05-09T00:02:27.457Z,58.40
2018-05-09T00:05:29.934Z,58.01
2018-05-09T00:08:32.461Z,59.71
2018-05-09T00:11:35.017Z,58.32
2018-05-09T00:14:37.572Z,57.84
2018-05-09T00:17:40.028Z,58.13
2018-05-09T00:20:42.512Z,58.26
2018-05-09T00:23:44.972Z,57.34
2018-05-09T00:26:47.473Z,56.99
2018-05-09T00:29:49.900Z,56.36
2018-05-09T00:32:52.434Z,56.03
2018-05-09T00:35:54.916Z,55.94
2018-05-09T00:38:57.464Z,56.07
2018-05-09T00:41:59.981Z,57.35
2018-05-09T00:45:02.481Z,56.46
2018-05-09T00:48:05.046Z,56.28
2018-05-09T00:51:07.524Z,57.27
2018-05-09T00:54:21.947Z,56.58
2018-05-09T00:57:24.476Z,56.75
2018-05-09T01:00:26.954Z,56.25
2018-05-09T01:03:29.388Z,56.52
2018-05-09T01:06:31.853Z,57.32
2018-05-09T01:09:34.335Z,57.26
2018-05-09T01:12:36.835Z,58.58
2018-05-09T01:15:39.349Z,58.77
2018-05-09T01:18:41.812Z,58.29
2018-05-09T01:21:44.269Z,59.19
2018-05-09T01:24:46.719Z,59.67
2018-05-09T01:27:49.149Z,58.87
2018-05-09T01:30:51.625Z,58.89
2018-05-09T01:33:54.134Z,58.55
2018-05-09T01:36:56.559Z,56.71
2018-05-09T01:39:59.055Z,56.91
2018-05-09T01:43:01.523Z,56.73
2018-05-09T01:46:03.995Z,56.48
2018-05-09T01:49:06.439Z,57.11
2018-05-09T01:52:08.913Z,57.42
2018-05-09T01:55:11.458Z,59.69
2018-05-09T01:58:14.020Z,61.47
2018-05-09T02:01:16.504Z,58.77
2018-05-09T02:04:19.046Z,58.99
2018-05-09T02:07:21.508Z,59.32
2018-05-09T02:10:23.947Z,58.58
2018-05-09T02:13:26.424Z,59.13
2018-05-09T02:16:28.913Z,59.82
2018-05-09T02:19:31.348Z,60.66
2018-05-09T02:22:33.852Z,61.77
2018-05-09T02:25:36.349Z,60.17
2018-05-09T02:28:38.863Z,59.82
2018-05-09T02:31:41.335Z,59.78
2018-05-09T02:34:43.774Z,60.25
2018-05-09T02:37:46.234Z,59.92
2018-05-09T02:40:48.654Z,59.48
2018-05-09T02:43:51.136Z,57.51
2018-05-09T02:46:53.576Z,57.61
2018-05-09T02:49:56.088Z,59.22
2018-05-09T02:52:58.556Z,58.13
2018-05-09T02:56:00.998Z,57.42
2018-05-09T02:59:03.540Z,58.14
2018-05-09T03:02:06.095Z,57.71
2018-05-09T03:05:08.523Z,57.35
2018-05-09T03:08:10.992Z,57.39
2018-05-09T03:11:13.466Z,57.89
2018-05-09T03:14:15.945Z,57.09
2018-05-09T03:17:18.350Z,57.27
2018-05-09T03:20:20.830Z,57.00
2018-05-09T03:23:23.748Z,57.19
2018-05-09T03:26:26.295Z,57.99
2018-05-09T03:29:28.745Z,58.04
2018-05-09T03:32:31.213Z,57.10
2018-05-09T03:35:33.674Z,56.55
2018-05-09T03:38:36.233Z,56.09
2018-05-09T03:41:38.750Z,56.97
2018-05-09T03:44:41.248Z,55.75
2018-05-09T03:47:43.694Z,55.81
2018-05-09T03:50:46.161Z,56.48
2018-05-09T03:53:48.619Z,55.26
2018-05-09T03:56:51.115Z,54.03
2018-05-09T03:59:53.581Z,54.19
2018-05-09T04:03:08.000Z,53.98
2018-05-09T04:06:22.274Z,53.60
2018-05-09T04:13:04.664Z,50.10
2018-05-09T04:16:07.035Z,49.78
2018-05-09T04:19:09.549Z,48.12
2018-05-09T04:22:11.995Z,47.36
2018-05-09T04:25:14.550Z,46.47
2018-05-09T04:28:17.216Z,45.33
2018-05-09T04:31:19.632Z,44.30
2018-05-09T04:34:22.154Z,43.76
2018-05-09T04:37:24.597Z,44.13
2018-05-09T04:40:27.096Z,42.47
2018-05-09T04:43:29.722Z,42.42
2018-05-09T04:46:32.280Z,42.52
2018-05-09T04:49:34.724Z,43.29
2018-05-09T04:52:37.205Z,44.29
2018-05-09T04:55:39.805Z,44.26
2018-05-09T04:58:42.218Z,45.66
2018-05-09T05:01:44.653Z,44.72
2018-05-09T05:04:47.163Z,42.93
2018-05-09T05:07:49.598Z,40.41
2018-05-09T05:10:52.058Z,40.45
2018-05-09T05:13:54.555Z,38.55
2018-05-09T05:16:56.994Z,38.55
2018-05-09T05:19:59.526Z,38.76
2018-05-09T05:23:02.216Z,39.07
2018-05-09T05:26:04.643Z,40.90
2018-05-09T05:29:07.104Z,40.79
2018-05-09T05:32:09.711Z,40.10
2018-05-09T05:35:12.256Z,41.07
2018-05-09T05:38:14.824Z,39.93
2018-05-09T05:41:17.254Z,40.23
2018-05-09T05:44:19.753Z,39.59
2018-05-09T05:47:22.199Z,39.01
2018-05-09T05:50:24.699Z,38.52
2018-05-09T05:53:27.133Z,37.08
2018-05-09T05:56:29.691Z,37.90
2018-05-09T05:59:32.147Z,38.63
2018-05-09T06:02:34.716Z,38.53
2018-05-09T06:05:37.272Z,38.53
2018-05-09T06:08:39.769Z,38.70
2018-05-09T06:11:42.222Z,39.66
2018-05-09T06:14:44.666Z,40.89
2018-05-09T06:17:47.133Z,40.63
2018-05-09T06:20:49.635Z,39.58
2018-05-09T06:23:52.192Z,39.97
2018-05-09T06:26:54.662Z,40.49
2018-05-09T06:29:57.166Z,38.78
2018-05-09T06:32:59.622Z,39.66
2018-05-09T06:36:02.092Z,39.61
2018-05-09T06:39:05.455Z,39.39
2018-05-09T06:42:07.956Z,39.22
2018-05-09T06:45:10.432Z,38.01
2018-05-09T06:48:12.886Z,40.04
2018-05-09T06:51:15.367Z,41.95
2018-05-09T06:54:17.878Z,42.92
2018-05-09T06:57:20.342Z,43.91
2018-05-09T07:00:22.817Z,44.61
2018-05-09T07:03:25.287Z,43.81
2018-05-09T07:06:27.942Z,44.39
2018-05-09T07:09:30.276Z,44.32
2018-05-09T07:12:32.864Z,44.30
2018-05-09T07:15:35.302Z,45.62
2018-05-09T07:18:37.869Z,43.87
2018-05-09T07:21:40.422Z,45.95
2018-05-09T07:24:42.991Z,43.60
2018-05-09T07:27:45.463Z,45.93
2018-05-09T07:30:47.918Z,46.32
2018-05-09T07:33:50.468Z,44.77
2018-05-09T07:36:52.931Z,46.35
2018-05-09T07:39:55.402Z,45.73
2018-05-09T07:42:57.955Z,43.97
2018-05-09T07:46:00.357Z,45.67
2018-05-09T07:49:02.986Z,47.66
2018-05-09T07:52:05.446Z,45.23
2018-05-09T07:55:07.956Z,44.45
2018-05-09T07:58:10.387Z,44.93
2018-05-09T08:01:12.877Z,44.51
2018-05-09T08:04:15.331Z,47.10
2018-05-09T08:07:17.857Z,45.43
2018-05-09T08:10:20.412Z,45.56
2018-05-09T08:13:22.972Z,46.54
2018-05-09T08:16:25.489Z,45.28
2018-05-09T08:19:27.954Z,43.27
2018-05-09T08:22:30.408Z,44.42
2018-05-09T08:25:32.891Z,45.34
2018-05-09T08:28:35.494Z,46.21
2018-05-09T08:31:37.933Z,44.95
2018-05-09T08:34:40.437Z,44.87
2018-05-09T08:37:42.959Z,45.35
2018-05-09T08:40:45.387Z,43.18
2018-05-09T08:43:47.920Z,43.64
2018-05-09T08:46:50.369Z,44.93
2018-05-09T08:49:52.827Z,43.19
2018-05-09T08:52:55.242Z,44.44
2018-05-09T08:55:57.727Z,43.26
2018-05-09T08:59:00.187Z,43.39
2018-05-09T09:02:02.643Z,45.38
2018-05-09T09:05:05.082Z,43.01
2018-05-09T09:08:07.637Z,41.91
2018-05-09T09:11:10.138Z,40.76
2018-05-09T09:14:12.693Z,42.82
2018-05-09T09:17:15.162Z,41.78
2018-05-09T09:20:17.598Z,41.24
2018-05-09T09:23:20.064Z,44.04
2018-05-09T09:26:22.644Z,40.75
2018-05-09T09:29:25.203Z,40.88
2018-05-09T09:32:27.660Z,40.84
2018-05-09T09:35:30.195Z,40.59
2018-05-09T09:38:32.767Z,39.72
2018-05-09T09:41:35.353Z,39.35
2018-05-09T09:44:37.704Z,38.20
2018-05-09T09:47:40.265Z,35.69
2018-05-09T09:50:42.768Z,37.56
2018-05-09T09:53:45.292Z,37.87
2018-05-09T09:56:47.743Z,36.83
2018-05-09T09:59:50.220Z,36.43
2018-05-09T10:02:52.708Z,35.37
2018-05-09T10:05:55.169Z,39.78
2018-05-09T10:08:57.698Z,36.69
2018-05-09T10:12:00.163Z,34.71
2018-05-09T10:15:02.616Z,36.64
2018-05-09T10:18:05.180Z,36.80
2018-05-09T10:21:07.606Z,36.81
2018-05-09T10:24:10.074Z,36.85
2018-05-09T10:27:12.661Z,39.35
2018-05-09T10:30:15.162Z,38.11
2018-05-09T10:33:17.689Z,37.56
2018-05-09T10:36:20.123Z,36.42
2018-05-09T10:39:22.714Z,35.46
2018-05-09T10:42:25.276Z,34.73
2018-05-09T10:45:27.753Z,33.80
2018-05-09T10:48:30.184Z,36.50
2018-05-09T10:51:32.715Z,35.69
2018-05-09T10:54:35.166Z,37.48
2018-05-09T10:57:37.715Z,35.80
2018-05-09T11:00:40.238Z,37.64
2018-05-09T11:03:43.706Z,37.28
2018-05-09T11:06:46.110Z,38.47
2018-05-09T11:09:48.561Z,37.53
2018-05-09T11:12:51.054Z,38.78
2018-05-09T11:15:53.518Z,36.04
2018-05-09T11:18:55.980Z,36.39
2018-05-09T11:21:58.469Z,36.21
2018-05-09T11:25:00.995Z,36.78
2018-05-09T11:28:03.465Z,36.98
2018-05-09T11:31:05.943Z,37.88
2018-05-09T11:34:08.437Z,35.93
2018-05-09T11:37:10.894Z,36.95
2018-05-09T11:40:13.438Z,37.28
2018-05-09T11:43:15.888Z,37.01
2018-05-09T11:46:18.346Z,33.67
2018-05-09T11:49:20.920Z,34.50
2018-05-09T11:52:23.421Z,34.44
2018-05-09T11:55:25.948Z,34.33
2018-05-09T11:58:28.431Z,33.78
2018-05-09T12:01:30.892Z,34.68
2018-05-09T12:04:33.365Z,35.59
2018-05-09T12:07:35.869Z,35.71
2018-05-09T12:10:38.365Z,33.58
2018-05-09T12:13:40.934Z,34.22
2018-05-09T12:16:43.415Z,35.56
2018-05-09T12:19:45.899Z,35.76
2018-05-09T12:22:48.337Z,34.21
2018-05-09T12:25:50.838Z,35.22
2018-05-09T12:28:53.359Z,34.87
2018-05-09T12:31:55.840Z,34.37
2018-05-09T12:34:58.357Z,35.26
2018-05-09T12:38:01.008Z,36.16
2018-05-09T12:41:03.461Z,37.98
2018-05-09T12:44:05.926Z,35.47
2018-05-09T12:47:08.360Z,35.34
2018-05-09T12:50:10.970Z,35.44
2018-05-09T12:53:13.455Z,36.18
2018-05-09T12:56:15.901Z,35.60
2018-05-09T12:59:18.879Z,36.53
2018-05-09T13:02:21.352Z,37.08
2018-05-09T13:05:23.839Z,36.25
2018-05-09T13:08:26.387Z,37.09
2018-05-09T13:11:28.905Z,39.30
2018-05-09T13:14:31.421Z,39.69
2018-05-09T13:17:33.902Z,38.33
2018-05-09T13:20:36.405Z,37.79
2018-05-09T13:23:38.852Z,38.08
2018-05-09T13:26:41.416Z,38.27
2018-05-09T13:29:43.911Z,38.25
2018-05-09T13:32:46.416Z,38.26
2018-05-09T13:35:48.999Z,38.04
2018-05-09T13:38:51.472Z,40.05
2018-05-09T13:41:54.031Z,37.75
2018-05-09T13:44:56.516Z,38.46
2018-05-09T13:47:59.059Z,38.19
2018-05-09T13:51:01.525Z,39.54
2018-05-09T13:54:04.069Z,39.94
2018-05-09T13:57:06.590Z,38.38
2018-05-09T14:00:09.103Z,39.06
2018-05-09T14:03:11.528Z,38.41
2018-05-09T14:06:14.097Z,38.87
2018-05-09T14:09:16.571Z,38.37
2018-05-09T14:12:19.072Z,40.10
2018-05-09T14:15:21.549Z,41.13
2018-05-09T14:18:24.001Z,40.67
2018-05-09T14:21:26.484Z,40.88
2018-05-09T14:24:28.972Z,40.10
2018-05-09T14:27:31.418Z,39.44
2018-05-09T14:30:33.956Z,40.22
2018-05-09T14:33:36.492Z,41.59
2018-05-09T14:36:38.983Z,40.47
2018-05-09T14:39:41.491Z,41.32
2018-05-09T14:42:44.056Z,41.10
2018-05-09T14:45:46.521Z,42.29
2018-05-09T14:48:49.077Z,41.14
2018-05-09T14:51:51.651Z,41.55
2018-05-09T14:54:54.332Z,38.94
2018-05-09T14:57:56.808Z,39.36
2018-05-09T15:00:59.312Z,40.62
2018-05-09T15:04:01.776Z,40.45
2018-05-09T15:07:04.351Z,40.77
2018-05-09T15:10:06.800Z,39.78
2018-05-09T15:13:09.312Z,39.66
2018-05-09T15:16:11.938Z,39.53
2018-05-09T15:19:14.439Z,40.04
2018-05-09T15:22:16.938Z,40.30
2018-05-09T15:25:19.583Z,40.30
2018-05-09T15:28:22.092Z,39.69
2018-05-09T15:31:24.567Z,40.47
2018-05-09T15:34:27.103Z,41.52
2018-05-09T15:37:29.607Z,41.33
2018-05-09T15:40:32.128Z,41.28
2018-05-09T15:43:34.605Z,41.90
2018-05-09T15:46:37.103Z,42.13
2018-05-09T15:49:39.596Z,41.71
2018-05-09T15:52:42.182Z,41.30
2018-05-09T15:55:44.638Z,42.75
2018-05-09T15:58:47.191Z,42.94
2018-05-09T16:01:49.681Z,40.89
2018-05-09T16:04:52.197Z,42.06
2018-05-09T16:07:54.648Z,42.23
2018-05-09T16:10:57.146Z,41.92
2018-05-09T16:13:59.584Z,42.03
2018-05-09T16:17:02.093Z,42.42
2018-05-09T16:20:04.688Z,43.86
2018-05-09T16:23:07.187Z,42.42
2018-05-09T16:26:09.687Z,44.32
2018-05-09T16:29:12.132Z,43.47
2018-05-09T16:32:14.631Z,43.73
2018-05-09T16:35:17.159Z,44.16
2018-05-09T16:38:19.657Z,44.04
2018-05-09T16:41:22.159Z,44.18
2018-05-09T16:44:24.605Z,44.93
2018-05-09T16:47:27.120Z,45.33
2018-05-09T16:50:29.684Z,44.62
2018-05-09T16:53:32.202Z,45.47
2018-05-09T16:56:34.668Z,45.61
2018-05-09T16:59:37.151Z,45.32
2018-05-09T17:02:39.608Z,44.42
2018-05-09T17:05:42.107Z,44.38
2018-05-09T17:08:44.571Z,44.50
2018-05-09T17:11:47.174Z,44.42
2018-05-09T17:14:49.734Z,43.10
2018-05-09T17:17:52.228Z,41.70
2018-05-09T17:20:54.713Z,39.87
2018-05-09T17:23:57.193Z,38.84
2018-05-09T17:26:59.654Z,38.00
2018-05-09T17:30:02.140Z,38.41
2018-05-09T17:33:04.659Z,38.18
2018-05-09T17:36:07.089Z,38.92
2018-05-09T17:39:09.620Z,39.11
2018-05-09T17:42:12.116Z,39.15
2018-05-09T17:45:14.603Z,38.25
2018-05-09T17:48:17.136Z,38.70
2018-05-09T17:51:19.672Z,39.14
2018-05-09T17:54:22.163Z,39.49
2018-05-09T17:57:24.620Z,40.55
2018-05-09T18:00:27.134Z,42.28
2018-05-09T18:03:29.619Z,42.65
2018-05-09T18:06:32.172Z,43.93
2018-05-09T18:09:34.635Z,46.71
2018-05-09T18:12:37.200Z,46.29
2018-05-09T18:15:39.723Z,48.18
2018-05-09T18:18:42.259Z,48.96
2018-05-09T18:21:44.837Z,48.45
2018-05-09T18:24:47.271Z,49.82
2018-05-09T18:27:49.731Z,51.32
2018-05-09T18:30:52.234Z,52.15
2018-05-09T18:33:54.729Z,52.69
2018-05-09T18:36:57.212Z,52.78
2018-05-09T18:39:59.751Z,53.74
2018-05-09T18:43:02.201Z,54.68
2018-05-09T18:46:04.708Z,53.53
2018-05-09T18:49:07.194Z,54.23
2018-05-09T18:52:09.724Z,53.98
2018-05-09T18:55:12.225Z,54.98
2018-05-09T18:58:14.729Z,55.63
2018-05-09T19:01:17.229Z,55.11
2018-05-09T19:04:19.741Z,55.52
2018-05-09T19:07:22.320Z,56.07
2018-05-09T19:10:24.820Z,56.04
2018-05-09T19:13:27.275Z,55.92
2018-05-09T19:16:29.804Z,56.39
2018-05-09T19:19:32.266Z,56.62
2018-05-09T19:22:34.771Z,56.64
2018-05-09T19:25:37.383Z,57.18
2018-05-09T19:28:39.932Z,57.67
2018-05-09T19:31:43.482Z,57.23
2018-05-09T19:34:46.092Z,57.37
2018-05-09T19:37:48.595Z,56.59
2018-05-09T19:40:51.153Z,56.36
2018-05-09T19:43:53.675Z,56.58
2018-05-09T19:46:56.242Z,56.32
2018-05-09T19:49:58.822Z,55.98
2018-05-09T19:53:01.284Z,56.01
2018-05-09T19:56:03.776Z,55.97
2018-05-09T19:59:06.249Z,55.97
2018-05-09T20:02:08.801Z,55.51
2018-05-09T20:05:11.284Z,55.40
2018-05-09T20:08:13.789Z,55.78
2018-05-09T20:11:16.301Z,55.61
2018-05-09T20:14:18.830Z,55.36
2018-05-09T20:17:21.370Z,55.78
2018-05-09T20:20:23.860Z,56.36
2018-05-09T20:23:26.334Z,56.08
2018-05-09T20:26:28.856Z,56.64
2018-05-09T20:29:31.386Z,57.45
2018-05-09T20:32:39.861Z,57.22
2018-05-09T20:35:42.359Z,57.13
2018-05-09T20:38:44.811Z,57.10
2018-05-09T20:41:47.382Z,57.45
2018-05-09T20:44:49.862Z,57.18
2018-05-09T20:47:52.452Z,57.63
2018-05-09T20:50:54.973Z,56.81
2018-05-09T20:53:57.635Z,57.39
2018-05-09T20:57:00.107Z,57.67
2018-05-09T21:00:02.585Z,58.41
2018-05-09T21:03:05.060Z,58.46
2018-05-09T21:06:07.565Z,59.16
2018-05-09T21:09:10.172Z,60.28
2018-05-09T21:12:12.595Z,60.16
2018-05-09T21:15:15.172Z,61.75
2018-05-09T21:18:17.694Z,61.28
2018-05-09T21:21:20.167Z,61.25
2018-05-09T21:24:22.760Z,62.37
2018-05-09T21:27:25.191Z,62.47
2018-05-09T21:30:27.729Z,62.90
2018-05-09T21:33:30.332Z,63.05
2018-05-09T21:36:32.839Z,62.57
2018-05-09T21:39:35.327Z,63.24
2018-05-09T21:42:37.820Z,63.03
2018-05-09T21:45:40.382Z,63.52
2018-05-09T21:48:42.839Z,63.46
2018-05-09T21:51:45.419Z,63.33
2018-05-09T21:54:47.899Z,62.82
2018-05-09T21:57:50.526Z,62.76
2018-05-09T22:00:53.094Z,62.44
2018-05-09T22:03:55.596Z,62.80
2018-05-09T22:06:58.095Z,62.86
2018-05-09T22:10:00.561Z,62.50
2018-05-09T22:13:03.051Z,63.24
2018-05-09T22:16:05.475Z,63.59
2018-05-09T22:19:07.964Z,63.96
2018-05-09T22:22:10.514Z,64.33
2018-05-09T22:25:13.086Z,65.47
2018-05-09T22:28:15.578Z,65.82
2018-05-09T22:31:18.092Z,66.14
2018-05-09T22:34:20.541Z,66.72
2018-05-09T22:37:23.107Z,67.45
2018-05-09T22:40:25.566Z,66.90
2018-05-09T22:43:28.034Z,66.81
2018-05-09T22:46:30.558Z,66.14
2018-05-09T22:49:33.077Z,65.83
2018-05-09T22:52:35.575Z,64.43
2018-05-09T22:55:38.015Z,65.69
2018-05-09T22:58:40.557Z,66.69
2018-05-09T23:01:43.130Z,67.82
2018-05-09T23:04:45.619Z,67.73
2018-05-09T23:07:48.092Z,68.64
2018-05-09T23:10:50.604Z,68.97
2018-05-09T23:13:53.269Z,69.04
2018-05-09T23:16:55.766Z,69.18
2018-05-09T23:19:58.234Z,69.23
2018-05-09T23:23:00.675Z,69.47
2018-05-09T23:26:03.137Z,68.85
2018-05-09T23:29:05.641Z,68.62
2018-05-09T23:32:08.176Z,68.04
2018-05-09T23:35:11.225Z,67.79
2018-05-09T23:38:13.695Z,67.32
2018-05-09T23:41:16.175Z,66.72
2018-05-09T23:44:18.689Z,66.66
2018-05-09T23:47:21.131Z,66.83
2018-05-09T23:50:23.644Z,67.29
2018-05-09T23:53:26.115Z,67.24
2018-05-09T23:56:28.577Z,68.02
2018-05-09T23:59:31.094Z,68.21
